sensor_id;sensor_type;location;lat;lon;timestamp;P1;durP1;ratioP1;P2;durP2;ratioP2
40170;SDS011;37650;52.790;18.268;2023-03-29T00:00:56;7.40;;;3.20;;
40170;SDS011;37650;52.790;18.268;2023-03-29T00:04:19;7.80;;;3.40;;
40170;SDS011;37650;52.790;18.268;2023-03-29T00:07:41;7.80;;;4.00;;
40170;SDS011;37650;52.790;18.268;2023-03-29T00:11:02;6.90;;;3.20;;
40170;SDS011;37650;52.790;18.268;2023-03-29T00:14:23;8.70;;;3.60;;
40170;SDS011;37650;52.790;18.268;2023-03-29T00:17:46;7.90;;;3.80;;
40170;SDS011;37650;52.790;18.268;2023-03-29T00:21:07;6.90;;;2.90;;
40170;SDS011;37650;52.790;18.268;2023-03-29T00:24:29;10.00;;;4.10;;
40170;SDS011;37650;52.790;18.268;2023-03-29T00:27:50;7.90;;;3.60;;
40170;SDS011;37650;52.790;18.268;2023-03-29T00:31:12;8.50;;;4.50;;
40170;SDS011;37650;52.790;18.268;2023-03-29T00:34:35;10.10;;;4.40;;
40170;SDS011;37650;52.790;18.268;2023-03-29T00:37:56;10.20;;;4.10;;
40170;SDS011;37650;52.790;18.268;2023-03-29T00:41:18;10.40;;;3.60;;
40170;SDS011;37650;52.790;18.268;2023-03-29T00:44:59;7.30;;;3.30;;
40170;SDS011;37650;52.790;18.268;2023-03-29T00:48:25;12.30;;;4.50;;
40170;SDS011;37650;52.790;18.268;2023-03-29T00:51:49;12.20;;;4.60;;
40170;SDS011;37650;52.790;18.268;2023-03-29T00:55:12;13.00;;;4.30;;
40170;SDS011;37650;52.790;18.268;2023-03-29T00:58:40;11.80;;;5.10;;
40170;SDS011;37650;52.790;18.268;2023-03-29T01:02:06;11.50;;;4.80;;
40170;SDS011;37650;52.790;18.268;2023-03-29T01:05:29;10.10;;;4.40;;
40170;SDS011;37650;52.790;18.268;2023-03-29T01:08:58;9.90;;;4.70;;
40170;SDS011;37650;52.790;18.268;2023-03-29T01:12:28;9.30;;;4.20;;
40170;SDS011;37650;52.790;18.268;2023-03-29T01:15:55;11.60;;;5.10;;
40170;SDS011;37650;52.790;18.268;2023-03-29T01:19:19;9.80;;;5.00;;
40170;SDS011;37650;52.790;18.268;2023-03-29T01:29:44;9.20;;;4.40;;
40170;SDS011;37650;52.790;18.268;2023-03-29T01:36:48;11.80;;;4.70;;
40170;SDS011;37650;52.790;18.268;2023-03-29T01:40:24;12.50;;;5.10;;
40170;SDS011;37650;52.790;18.268;2023-03-29T01:47:53;10.60;;;5.20;;
40170;SDS011;37650;52.790;18.268;2023-03-29T01:51:13;10.80;;;4.30;;
40170;SDS011;37650;52.790;18.268;2023-03-29T01:54:55;10.90;;;5.10;;
40170;SDS011;37650;52.790;18.268;2023-03-29T01:58:31;9.00;;;4.80;;
40170;SDS011;37650;52.790;18.268;2023-03-29T02:01:56;11.50;;;5.20;;
40170;SDS011;37650;52.790;18.268;2023-03-29T02:05:20;10.70;;;4.10;;
40170;SDS011;37650;52.790;18.268;2023-03-29T02:08:44;10.10;;;4.50;;
40170;SDS011;37650;52.790;18.268;2023-03-29T02:12:07;12.40;;;4.80;;
40170;SDS011;37650;52.790;18.268;2023-03-29T02:15:30;9.10;;;4.80;;
40170;SDS011;37650;52.790;18.268;2023-03-29T02:18:52;10.70;;;4.30;;
40170;SDS011;37650;52.790;18.268;2023-03-29T02:22:18;13.60;;;4.60;;
40170;SDS011;37650;52.790;18.268;2023-03-29T02:25:44;14.60;;;5.40;;
40170;SDS011;37650;52.790;18.268;2023-03-29T02:29:06;12.20;;;5.80;;
40170;SDS011;37650;52.790;18.268;2023-03-29T02:32:30;19.30;;;5.60;;
40170;SDS011;37650;52.790;18.268;2023-03-29T02:36:14;26.00;;;7.20;;
40170;SDS011;37650;52.790;18.268;2023-03-29T02:39:40;28.90;;;7.10;;
40170;SDS011;37650;52.790;18.268;2023-03-29T02:43:02;33.20;;;7.30;;
40170;SDS011;37650;52.790;18.268;2023-03-29T02:46:26;23.70;;;6.80;;
40170;SDS011;37650;52.790;18.268;2023-03-29T02:49:48;12.90;;;4.80;;
40170;SDS011;37650;52.790;18.268;2023-03-29T02:53:14;16.80;;;5.60;;
40170;SDS011;37650;52.790;18.268;2023-03-29T03:00:04;13.10;;;5.90;;
40170;SDS011;37650;52.790;18.268;2023-03-29T03:03:29;15.10;;;6.00;;
40170;SDS011;37650;52.790;18.268;2023-03-29T03:06:52;13.30;;;6.60;;
40170;SDS011;37650;52.790;18.268;2023-03-29T03:10:14;13.20;;;5.60;;
40170;SDS011;37650;52.790;18.268;2023-03-29T03:13:35;14.90;;;5.50;;
40170;SDS011;37650;52.790;18.268;2023-03-29T03:16:57;14.20;;;6.80;;
40170;SDS011;37650;52.790;18.268;2023-03-29T03:20:19;11.70;;;5.50;;
40170;SDS011;37650;52.790;18.268;2023-03-29T03:23:44;12.10;;;4.80;;
40170;SDS011;37650;52.790;18.268;2023-03-29T03:27:06;12.30;;;5.40;;
40170;SDS011;37650;52.790;18.268;2023-03-29T03:30:28;13.90;;;6.70;;
40170;SDS011;37650;52.790;18.268;2023-03-29T03:33:55;14.30;;;5.40;;
40170;SDS011;37650;52.790;18.268;2023-03-29T03:37:22;10.90;;;5.20;;
40170;SDS011;37650;52.790;18.268;2023-03-29T03:40:43;19.10;;;6.10;;
40170;SDS011;37650;52.790;18.268;2023-03-29T03:44:04;14.70;;;5.10;;
40170;SDS011;37650;52.790;18.268;2023-03-29T03:47:26;15.30;;;7.20;;
40170;SDS011;37650;52.790;18.268;2023-03-29T03:50:52;19.30;;;6.10;;
40170;SDS011;37650;52.790;18.268;2023-03-29T03:54:15;16.10;;;6.20;;
40170;SDS011;37650;52.790;18.268;2023-03-29T03:57:55;12.80;;;6.70;;
40170;SDS011;37650;52.790;18.268;2023-03-29T04:01:17;14.10;;;6.50;;
40170;SDS011;37650;52.790;18.268;2023-03-29T04:04:45;12.80;;;6.00;;
40170;SDS011;37650;52.790;18.268;2023-03-29T04:08:12;12.80;;;6.30;;
40170;SDS011;37650;52.790;18.268;2023-03-29T04:11:53;15.70;;;6.60;;
40170;SDS011;37650;52.790;18.268;2023-03-29T04:15:15;20.00;;;7.90;;
40170;SDS011;37650;52.790;18.268;2023-03-29T04:18:43;14.90;;;7.30;;
40170;SDS011;37650;52.790;18.268;2023-03-29T04:22:04;20.30;;;6.80;;
40170;SDS011;37650;52.790;18.268;2023-03-29T04:25:25;16.40;;;6.60;;
40170;SDS011;37650;52.790;18.268;2023-03-29T04:28:52;17.00;;;7.40;;
40170;SDS011;37650;52.790;18.268;2023-03-29T04:32:18;21.40;;;8.10;;
40170;SDS011;37650;52.790;18.268;2023-03-29T04:35:50;15.50;;;8.00;;
40170;SDS011;37650;52.790;18.268;2023-03-29T04:39:12;16.60;;;8.50;;
40170;SDS011;37650;52.790;18.268;2023-03-29T04:42:34;25.00;;;8.70;;
40170;SDS011;37650;52.790;18.268;2023-03-29T04:45:57;20.80;;;9.60;;
40170;SDS011;37650;52.790;18.268;2023-03-29T04:49:31;20.00;;;10.40;;
40170;SDS011;37650;52.790;18.268;2023-03-29T04:52:53;35.80;;;21.60;;
40170;SDS011;37650;52.790;18.268;2023-03-29T04:56:14;21.40;;;12.40;;
40170;SDS011;37650;52.790;18.268;2023-03-29T04:59:56;27.20;;;13.70;;
40170;SDS011;37650;52.790;18.268;2023-03-29T05:03:37;31.60;;;12.30;;
40170;SDS011;37650;52.790;18.268;2023-03-29T05:07:06;21.50;;;12.00;;
40170;SDS011;37650;52.790;18.268;2023-03-29T05:10:27;25.20;;;12.40;;
40170;SDS011;37650;52.790;18.268;2023-03-29T05:13:48;24.00;;;11.90;;
40170;SDS011;37650;52.790;18.268;2023-03-29T05:17:09;28.60;;;13.20;;
40170;SDS011;37650;52.790;18.268;2023-03-29T05:20:30;27.30;;;11.50;;
40170;SDS011;37650;52.790;18.268;2023-03-29T05:23:53;30.00;;;11.90;;
40170;SDS011;37650;52.790;18.268;2023-03-29T05:27:37;31.00;;;13.90;;
40170;SDS011;37650;52.790;18.268;2023-03-29T05:36:03;25.90;;;14.50;;
40170;SDS011;37650;52.790;18.268;2023-03-29T05:39:27;32.50;;;15.70;;
40170;SDS011;37650;52.790;18.268;2023-03-29T05:42:48;32.40;;;16.60;;
40170;SDS011;37650;52.790;18.268;2023-03-29T05:46:22;27.40;;;13.00;;
40170;SDS011;37650;52.790;18.268;2023-03-29T05:49:46;31.20;;;12.70;;
40170;SDS011;37650;52.790;18.268;2023-03-29T05:53:10;20.90;;;11.40;;
40170;SDS011;37650;52.790;18.268;2023-03-29T05:56:32;32.40;;;13.40;;
40170;SDS011;37650;52.790;18.268;2023-03-29T05:59:53;29.70;;;14.60;;
40170;SDS011;37650;52.790;18.268;2023-03-29T06:03:15;28.40;;;12.30;;
40170;SDS011;37650;52.790;18.268;2023-03-29T06:06:41;29.10;;;15.40;;
40170;SDS011;37650;52.790;18.268;2023-03-29T06:10:02;29.50;;;15.70;;
40170;SDS011;37650;52.790;18.268;2023-03-29T06:13:25;26.90;;;14.70;;
40170;SDS011;37650;52.790;18.268;2023-03-29T06:16:56;35.60;;;19.90;;
40170;SDS011;37650;52.790;18.268;2023-03-29T06:20:17;34.00;;;17.50;;
40170;SDS011;37650;52.790;18.268;2023-03-29T06:23:43;32.50;;;17.60;;
40170;SDS011;37650;52.790;18.268;2023-03-29T06:27:05;34.50;;;18.80;;
40170;SDS011;37650;52.790;18.268;2023-03-29T06:30:26;30.50;;;19.60;;
40170;SDS011;37650;52.790;18.268;2023-03-29T06:33:51;33.50;;;19.50;;
40170;SDS011;37650;52.790;18.268;2023-03-29T06:37:39;38.40;;;20.90;;
40170;SDS011;37650;52.790;18.268;2023-03-29T06:41:21;25.40;;;17.30;;
40170;SDS011;37650;52.790;18.268;2023-03-29T06:45:06;36.70;;;21.60;;
40170;SDS011;37650;52.790;18.268;2023-03-29T06:48:30;27.80;;;16.40;;
40170;SDS011;37650;52.790;18.268;2023-03-29T06:51:53;22.90;;;14.60;;
40170;SDS011;37650;52.790;18.268;2023-03-29T06:55:17;23.50;;;13.60;;
40170;SDS011;37650;52.790;18.268;2023-03-29T06:58:40;27.10;;;15.50;;
40170;SDS011;37650;52.790;18.268;2023-03-29T07:02:11;22.50;;;12.50;;
40170;SDS011;37650;52.790;18.268;2023-03-29T07:05:58;27.10;;;14.90;;
40170;SDS011;37650;52.790;18.268;2023-03-29T07:09:23;34.50;;;15.60;;
40170;SDS011;37650;52.790;18.268;2023-03-29T07:13:09;16.10;;;8.70;;
40170;SDS011;37650;52.790;18.268;2023-03-29T07:16:36;16.80;;;7.20;;
40170;SDS011;37650;52.790;18.268;2023-03-29T07:20:10;12.00;;;6.90;;
40170;SDS011;37650;52.790;18.268;2023-03-29T07:23:41;16.10;;;7.30;;
40170;SDS011;37650;52.790;18.268;2023-03-29T07:27:02;11.50;;;6.00;;
40170;SDS011;37650;52.790;18.268;2023-03-29T07:30:24;20.00;;;13.20;;
40170;SDS011;37650;52.790;18.268;2023-03-29T07:33:48;11.40;;;6.30;;
40170;SDS011;37650;52.790;18.268;2023-03-29T07:37:12;17.70;;;9.00;;
40170;SDS011;37650;52.790;18.268;2023-03-29T07:40:35;26.10;;;10.30;;
40170;SDS011;37650;52.790;18.268;2023-03-29T07:44:15;12.80;;;5.40;;
40170;SDS011;37650;52.790;18.268;2023-03-29T07:47:41;11.80;;;4.90;;
40170;SDS011;37650;52.790;18.268;2023-03-29T07:51:13;11.60;;;6.30;;
40170;SDS011;37650;52.790;18.268;2023-03-29T07:54:41;10.40;;;5.50;;
40170;SDS011;37650;52.790;18.268;2023-03-29T07:58:34;7.60;;;3.90;;
40170;SDS011;37650;52.790;18.268;2023-03-29T08:01:55;10.10;;;4.90;;
40170;SDS011;37650;52.790;18.268;2023-03-29T08:05:24;7.20;;;4.00;;
40170;SDS011;37650;52.790;18.268;2023-03-29T08:08:46;8.60;;;4.50;;
40170;SDS011;37650;52.790;18.268;2023-03-29T08:12:10;9.30;;;4.50;;
40170;SDS011;37650;52.790;18.268;2023-03-29T08:15:32;7.70;;;5.00;;
40170;SDS011;37650;52.790;18.268;2023-03-29T08:18:53;8.20;;;5.60;;
40170;SDS011;37650;52.790;18.268;2023-03-29T08:22:15;9.00;;;5.60;;
40170;SDS011;37650;52.790;18.268;2023-03-29T08:25:59;9.00;;;6.30;;
40170;SDS011;37650;52.790;18.268;2023-03-29T08:29:37;10.00;;;6.00;;
40170;SDS011;37650;52.790;18.268;2023-03-29T08:32:59;9.80;;;5.50;;
40170;SDS011;37650;52.790;18.268;2023-03-29T08:36:20;8.80;;;5.50;;
40170;SDS011;37650;52.790;18.268;2023-03-29T08:39:42;10.40;;;5.60;;
40170;SDS011;37650;52.790;18.268;2023-03-29T08:43:30;7.90;;;4.90;;
40170;SDS011;37650;52.790;18.268;2023-03-29T08:47:28;11.00;;;6.30;;
40170;SDS011;37650;52.790;18.268;2023-03-29T08:51:18;7.20;;;4.00;;
40170;SDS011;37650;52.790;18.268;2023-03-29T08:54:45;9.40;;;5.50;;
40170;SDS011;37650;52.790;18.268;2023-03-29T08:58:29;9.10;;;4.30;;
40170;SDS011;37650;52.790;18.268;2023-03-29T09:01:54;36.40;;;30.30;;
40170;SDS011;37650;52.790;18.268;2023-03-29T09:05:24;9.40;;;5.80;;
40170;SDS011;37650;52.790;18.268;2023-03-29T09:09:14;7.80;;;4.20;;
40170;SDS011;37650;52.790;18.268;2023-03-29T09:16:07;8.30;;;4.60;;
40170;SDS011;37650;52.790;18.268;2023-03-29T09:27:28;4.80;;;2.50;;
40170;SDS011;37650;52.790;18.268;2023-03-29T09:35:02;8.30;;;4.40;;
40170;SDS011;37650;52.790;18.268;2023-03-29T09:38:41;8.30;;;4.80;;
40170;SDS011;37650;52.790;18.268;2023-03-29T09:42:07;6.00;;;3.90;;
40170;SDS011;37650;52.790;18.268;2023-03-29T09:45:30;8.20;;;4.60;;
40170;SDS011;37650;52.790;18.268;2023-03-29T09:48:51;8.40;;;5.40;;
40170;SDS011;37650;52.790;18.268;2023-03-29T09:52:14;9.00;;;4.90;;
40170;SDS011;37650;52.790;18.268;2023-03-29T09:55:41;8.00;;;4.80;;
40170;SDS011;37650;52.790;18.268;2023-03-29T09:59:15;10.20;;;5.60;;
40170;SDS011;37650;52.790;18.268;2023-03-29T10:02:36;8.40;;;3.80;;
40170;SDS011;37650;52.790;18.268;2023-03-29T10:05:58;9.20;;;6.10;;
40170;SDS011;37650;52.790;18.268;2023-03-29T10:09:22;12.60;;;7.80;;
40170;SDS011;37650;52.790;18.268;2023-03-29T10:12:51;10.90;;;7.10;;
40170;SDS011;37650;52.790;18.268;2023-03-29T10:16:23;35.00;;;23.80;;
40170;SDS011;37650;52.790;18.268;2023-03-29T10:19:51;34.30;;;22.10;;
40170;SDS011;37650;52.790;18.268;2023-03-29T10:23:17;14.40;;;8.40;;
40170;SDS011;37650;52.790;18.268;2023-03-29T10:30:00;68.60;;;42.10;;
40170;SDS011;37650;52.790;18.268;2023-03-29T10:33:30;13.40;;;7.20;;
40170;SDS011;37650;52.790;18.268;2023-03-29T10:36:56;45.10;;;28.10;;
40170;SDS011;37650;52.790;18.268;2023-03-29T10:40:20;5.40;;;1.90;;
40170;SDS011;37650;52.790;18.268;2023-03-29T10:43:52;16.00;;;7.70;;
40170;SDS011;37650;52.790;18.268;2023-03-29T10:47:17;5.80;;;3.00;;
40170;SDS011;37650;52.790;18.268;2023-03-29T10:50:40;77.60;;;44.60;;
40170;SDS011;37650;52.790;18.268;2023-03-29T10:54:03;10.20;;;5.40;;
40170;SDS011;37650;52.790;18.268;2023-03-29T11:01:04;15.10;;;8.50;;
40170;SDS011;37650;52.790;18.268;2023-03-29T11:04:40;7.00;;;2.70;;
40170;SDS011;37650;52.790;18.268;2023-03-29T11:11:54;8.60;;;4.60;;
40170;SDS011;37650;52.790;18.268;2023-03-29T11:26:11;10.10;;;6.10;;
40170;SDS011;37650;52.790;18.268;2023-03-29T11:33:37;39.70;;;25.50;;
40170;SDS011;37650;52.790;18.268;2023-03-29T11:37:09;8.50;;;4.60;;
40170;SDS011;37650;52.790;18.268;2023-03-29T11:40:48;13.90;;;7.20;;
40170;SDS011;37650;52.790;18.268;2023-03-29T11:44:30;5.00;;;2.70;;
40170;SDS011;37650;52.790;18.268;2023-03-29T11:47:53;6.00;;;2.50;;
40170;SDS011;37650;52.790;18.268;2023-03-29T11:51:31;6.50;;;2.60;;
40170;SDS011;37650;52.790;18.268;2023-03-29T11:58:28;8.10;;;3.50;;
40170;SDS011;37650;52.790;18.268;2023-03-29T12:01:55;6.70;;;2.60;;
40170;SDS011;37650;52.790;18.268;2023-03-29T12:05:34;4.40;;;2.30;;
40170;SDS011;37650;52.790;18.268;2023-03-29T12:12:44;6.10;;;3.30;;
40170;SDS011;37650;52.790;18.268;2023-03-29T12:16:17;4.10;;;2.10;;
40170;SDS011;37650;52.790;18.268;2023-03-29T12:19:48;7.00;;;5.30;;
40170;SDS011;37650;52.790;18.268;2023-03-29T12:23:19;4.70;;;2.50;;
40170;SDS011;37650;52.790;18.268;2023-03-29T12:34:10;4.70;;;2.30;;
40170;SDS011;37650;52.790;18.268;2023-03-29T12:41:41;6.20;;;4.50;;
40170;SDS011;37650;52.790;18.268;2023-03-29T12:49:13;6.70;;;3.00;;
40170;SDS011;37650;52.790;18.268;2023-03-29T12:52:42;7.10;;;2.70;;
40170;SDS011;37650;52.790;18.268;2023-03-29T12:59:44;4.50;;;2.60;;
40170;SDS011;37650;52.790;18.268;2023-03-29T13:03:26;6.40;;;2.70;;
40170;SDS011;37650;52.790;18.268;2023-03-29T13:07:00;6.70;;;2.90;;
40170;SDS011;37650;52.790;18.268;2023-03-29T13:10:39;5.30;;;2.90;;
40170;SDS011;37650;52.790;18.268;2023-03-29T13:14:07;6.60;;;4.20;;
40170;SDS011;37650;52.790;18.268;2023-03-29T13:24:36;8.60;;;5.50;;
40170;SDS011;37650;52.790;18.268;2023-03-29T13:39:21;11.20;;;7.30;;
40170;SDS011;37650;52.790;18.268;2023-03-29T13:42:55;15.80;;;9.50;;
40170;SDS011;37650;52.790;18.268;2023-03-29T13:46:23;11.00;;;6.10;;
40170;SDS011;37650;52.790;18.268;2023-03-29T13:49:56;6.10;;;3.30;;
40170;SDS011;37650;52.790;18.268;2023-03-29T13:54:05;8.60;;;4.60;;
40170;SDS011;37650;52.790;18.268;2023-03-29T13:57:14;7.90;;;4.70;;
40170;SDS011;37650;52.790;18.268;2023-03-29T14:01:00;9.00;;;4.30;;
40170;SDS011;37650;52.790;18.268;2023-03-29T14:04:44;9.10;;;6.80;;
40170;SDS011;37650;52.790;18.268;2023-03-29T14:08:15;9.30;;;4.30;;
40170;SDS011;37650;52.790;18.268;2023-03-29T14:11:43;10.00;;;5.00;;
40170;SDS011;37650;52.790;18.268;2023-03-29T14:15:16;16.70;;;10.40;;
40170;SDS011;37650;52.790;18.268;2023-03-29T14:18:42;11.50;;;7.80;;
40170;SDS011;37650;52.790;18.268;2023-03-29T14:22:12;22.50;;;16.10;;
40170;SDS011;37650;52.790;18.268;2023-03-29T14:25:38;11.20;;;6.60;;
40170;SDS011;37650;52.790;18.268;2023-03-29T14:29:01;12.20;;;7.30;;
40170;SDS011;37650;52.790;18.268;2023-03-29T14:32:26;14.10;;;6.60;;
40170;SDS011;37650;52.790;18.268;2023-03-29T14:35:49;9.10;;;5.60;;
40170;SDS011;37650;52.790;18.268;2023-03-29T14:39:15;7.40;;;4.40;;
40170;SDS011;37650;52.790;18.268;2023-03-29T14:42:40;9.10;;;4.30;;
40170;SDS011;37650;52.790;18.268;2023-03-29T14:46:05;9.40;;;5.20;;
40170;SDS011;37650;52.790;18.268;2023-03-29T14:49:28;11.20;;;6.10;;
40170;SDS011;37650;52.790;18.268;2023-03-29T14:52:50;7.90;;;4.30;;
40170;SDS011;37650;52.790;18.268;2023-03-29T14:56:12;9.70;;;4.80;;
40170;SDS011;37650;52.790;18.268;2023-03-29T14:59:39;10.00;;;5.80;;
40170;SDS011;37650;52.790;18.268;2023-03-29T15:03:02;16.20;;;8.90;;
40170;SDS011;37650;52.790;18.268;2023-03-29T15:06:35;10.60;;;4.30;;
40170;SDS011;37650;52.790;18.268;2023-03-29T15:10:01;7.60;;;4.40;;
40170;SDS011;37650;52.790;18.268;2023-03-29T15:13:25;9.00;;;5.00;;
40170;SDS011;37650;52.790;18.268;2023-03-29T15:16:48;13.10;;;4.80;;
40170;SDS011;37650;52.790;18.268;2023-03-29T15:20:21;12.40;;;5.70;;
40170;SDS011;37650;52.790;18.268;2023-03-29T15:23:49;9.40;;;5.00;;
40170;SDS011;37650;52.790;18.268;2023-03-29T15:27:16;17.50;;;8.50;;
40170;SDS011;37650;52.790;18.268;2023-03-29T15:30:42;12.60;;;7.30;;
40170;SDS011;37650;52.790;18.268;2023-03-29T15:34:05;25.70;;;16.80;;
40170;SDS011;37650;52.790;18.268;2023-03-29T15:37:34;7.80;;;5.10;;
40170;SDS011;37650;52.790;18.268;2023-03-29T15:40:56;16.50;;;11.70;;
40170;SDS011;37650;52.790;18.268;2023-03-29T15:44:21;59.90;;;21.60;;
40170;SDS011;37650;52.790;18.268;2023-03-29T15:47:46;23.30;;;16.70;;
40170;SDS011;37650;52.790;18.268;2023-03-29T15:51:09;23.30;;;17.70;;
40170;SDS011;37650;52.790;18.268;2023-03-29T15:54:31;17.50;;;11.40;;
40170;SDS011;37650;52.790;18.268;2023-03-29T15:57:54;50.70;;;33.40;;
40170;SDS011;37650;52.790;18.268;2023-03-29T16:05:02;11.60;;;6.90;;
40170;SDS011;37650;52.790;18.268;2023-03-29T16:08:23;14.70;;;10.50;;
40170;SDS011;37650;52.790;18.268;2023-03-29T16:15:08;15.70;;;8.90;;
40170;SDS011;37650;52.790;18.268;2023-03-29T16:18:34;16.40;;;8.30;;
40170;SDS011;37650;52.790;18.268;2023-03-29T16:21:56;14.70;;;8.10;;
40170;SDS011;37650;52.790;18.268;2023-03-29T16:25:18;23.10;;;14.30;;
40170;SDS011;37650;52.790;18.268;2023-03-29T16:28:43;20.50;;;10.20;;
40170;SDS011;37650;52.790;18.268;2023-03-29T16:32:05;20.10;;;9.60;;
40170;SDS011;37650;52.790;18.268;2023-03-29T16:35:27;20.30;;;11.70;;
40170;SDS011;37650;52.790;18.268;2023-03-29T16:38:50;32.60;;;18.20;;
40170;SDS011;37650;52.790;18.268;2023-03-29T16:42:13;30.70;;;18.80;;
40170;SDS011;37650;52.790;18.268;2023-03-29T16:45:34;40.80;;;26.10;;
40170;SDS011;37650;52.790;18.268;2023-03-29T16:48:56;34.70;;;22.40;;
40170;SDS011;37650;52.790;18.268;2023-03-29T16:52:18;25.30;;;16.60;;
40170;SDS011;37650;52.790;18.268;2023-03-29T16:55:39;20.30;;;12.70;;
40170;SDS011;37650;52.790;18.268;2023-03-29T16:59:00;43.50;;;27.30;;
40170;SDS011;37650;52.790;18.268;2023-03-29T17:02:22;31.00;;;18.40;;
40170;SDS011;37650;52.790;18.268;2023-03-29T17:05:47;46.80;;;28.00;;
40170;SDS011;37650;52.790;18.268;2023-03-29T17:09:10;25.40;;;14.40;;
40170;SDS011;37650;52.790;18.268;2023-03-29T17:12:32;22.20;;;15.40;;
40170;SDS011;37650;52.790;18.268;2023-03-29T17:15:54;39.90;;;24.60;;
40170;SDS011;37650;52.790;18.268;2023-03-29T17:19:16;53.80;;;32.10;;
40170;SDS011;37650;52.790;18.268;2023-03-29T17:22:37;64.00;;;40.00;;
40170;SDS011;37650;52.790;18.268;2023-03-29T17:25:59;55.60;;;34.30;;
40170;SDS011;37650;52.790;18.268;2023-03-29T17:29:20;42.70;;;27.30;;
40170;SDS011;37650;52.790;18.268;2023-03-29T17:32:42;44.70;;;28.10;;
40170;SDS011;37650;52.790;18.268;2023-03-29T17:36:05;29.60;;;16.40;;
40170;SDS011;37650;52.790;18.268;2023-03-29T17:39:29;31.30;;;15.90;;
40170;SDS011;37650;52.790;18.268;2023-03-29T17:42:51;38.00;;;20.90;;
40170;SDS011;37650;52.790;18.268;2023-03-29T17:46:13;44.20;;;28.30;;
40170;SDS011;37650;52.790;18.268;2023-03-29T17:49:36;51.30;;;29.60;;
40170;SDS011;37650;52.790;18.268;2023-03-29T17:52:58;83.20;;;54.30;;
40170;SDS011;37650;52.790;18.268;2023-03-29T17:56:36;50.60;;;34.50;;
40170;SDS011;37650;52.790;18.268;2023-03-29T18:00:18;38.50;;;25.10;;
40170;SDS011;37650;52.790;18.268;2023-03-29T18:07:05;46.90;;;26.30;;
40170;SDS011;37650;52.790;18.268;2023-03-29T18:10:34;40.50;;;24.80;;
40170;SDS011;37650;52.790;18.268;2023-03-29T18:13:58;61.90;;;31.30;;
40170;SDS011;37650;52.790;18.268;2023-03-29T18:17:22;58.70;;;29.30;;
40170;SDS011;37650;52.790;18.268;2023-03-29T18:20:46;43.10;;;26.30;;
40170;SDS011;37650;52.790;18.268;2023-03-29T18:24:07;45.70;;;26.00;;
40170;SDS011;37650;52.790;18.268;2023-03-29T18:27:58;38.20;;;20.50;;
40170;SDS011;37650;52.790;18.268;2023-03-29T18:31:20;43.80;;;21.80;;
40170;SDS011;37650;52.790;18.268;2023-03-29T18:34:42;36.50;;;20.20;;
40170;SDS011;37650;52.790;18.268;2023-03-29T18:38:04;29.40;;;16.60;;
40170;SDS011;37650;52.790;18.268;2023-03-29T18:41:30;28.50;;;16.30;;
40170;SDS011;37650;52.790;18.268;2023-03-29T18:44:55;31.10;;;16.10;;
40170;SDS011;37650;52.790;18.268;2023-03-29T18:48:37;21.20;;;12.30;;
40170;SDS011;37650;52.790;18.268;2023-03-29T18:51:59;30.90;;;17.40;;
40170;SDS011;37650;52.790;18.268;2023-03-29T18:55:23;40.30;;;21.60;;
40170;SDS011;37650;52.790;18.268;2023-03-29T18:58:45;46.40;;;26.80;;
40170;SDS011;37650;52.790;18.268;2023-03-29T19:02:08;35.90;;;20.10;;
40170;SDS011;37650;52.790;18.268;2023-03-29T19:05:31;26.70;;;16.00;;
40170;SDS011;37650;52.790;18.268;2023-03-29T19:09:07;26.60;;;16.20;;
40170;SDS011;37650;52.790;18.268;2023-03-29T19:12:35;34.40;;;15.60;;
40170;SDS011;37650;52.790;18.268;2023-03-29T19:15:58;24.60;;;15.00;;
40170;SDS011;37650;52.790;18.268;2023-03-29T19:19:25;33.10;;;18.30;;
40170;SDS011;37650;52.790;18.268;2023-03-29T19:22:49;27.30;;;16.90;;
40170;SDS011;37650;52.790;18.268;2023-03-29T19:26:15;34.90;;;19.90;;
40170;SDS011;37650;52.790;18.268;2023-03-29T19:29:38;33.10;;;19.70;;
40170;SDS011;37650;52.790;18.268;2023-03-29T19:33:01;36.80;;;21.20;;
40170;SDS011;37650;52.790;18.268;2023-03-29T19:36:25;39.60;;;22.50;;
40170;SDS011;37650;52.790;18.268;2023-03-29T19:39:51;31.00;;;17.10;;
40170;SDS011;37650;52.790;18.268;2023-03-29T19:43:14;30.90;;;18.00;;
40170;SDS011;37650;52.790;18.268;2023-03-29T19:46:40;25.90;;;15.50;;
40170;SDS011;37650;52.790;18.268;2023-03-29T19:50:05;27.20;;;14.60;;
40170;SDS011;37650;52.790;18.268;2023-03-29T19:53:28;30.10;;;14.50;;
40170;SDS011;37650;52.790;18.268;2023-03-29T19:56:51;26.50;;;13.60;;
40170;SDS011;37650;52.790;18.268;2023-03-29T20:00:14;24.60;;;14.00;;
40170;SDS011;37650;52.790;18.268;2023-03-29T20:03:41;26.70;;;14.80;;
40170;SDS011;37650;52.790;18.268;2023-03-29T20:07:03;24.90;;;15.20;;
40170;SDS011;37650;52.790;18.268;2023-03-29T20:13:46;28.20;;;14.70;;
40170;SDS011;37650;52.790;18.268;2023-03-29T20:17:08;33.60;;;17.30;;
40170;SDS011;37650;52.790;18.268;2023-03-29T20:20:30;31.80;;;17.40;;
40170;SDS011;37650;52.790;18.268;2023-03-29T20:23:55;30.60;;;18.10;;
40170;SDS011;37650;52.790;18.268;2023-03-29T20:27:16;31.30;;;19.20;;
40170;SDS011;37650;52.790;18.268;2023-03-29T20:30:39;37.40;;;21.10;;
40170;SDS011;37650;52.790;18.268;2023-03-29T20:34:01;35.40;;;17.90;;
40170;SDS011;37650;52.790;18.268;2023-03-29T20:37:23;33.30;;;20.00;;
40170;SDS011;37650;52.790;18.268;2023-03-29T20:40:46;40.80;;;21.00;;
40170;SDS011;37650;52.790;18.268;2023-03-29T20:44:08;36.20;;;18.10;;
40170;SDS011;37650;52.790;18.268;2023-03-29T20:47:30;44.80;;;22.30;;
40170;SDS011;37650;52.790;18.268;2023-03-29T20:50:52;44.30;;;23.40;;
40170;SDS011;37650;52.790;18.268;2023-03-29T20:54:13;42.70;;;22.70;;
40170;SDS011;37650;52.790;18.268;2023-03-29T20:57:34;45.40;;;24.70;;
40170;SDS011;37650;52.790;18.268;2023-03-29T21:00:56;42.00;;;21.50;;
40170;SDS011;37650;52.790;18.268;2023-03-29T21:04:18;31.20;;;18.80;;
40170;SDS011;37650;52.790;18.268;2023-03-29T21:07:40;34.10;;;19.80;;
40170;SDS011;37650;52.790;18.268;2023-03-29T21:11:04;33.10;;;20.20;;
40170;SDS011;37650;52.790;18.268;2023-03-29T21:14:27;34.10;;;18.60;;
40170;SDS011;37650;52.790;18.268;2023-03-29T21:17:49;34.40;;;20.20;;
40170;SDS011;37650;52.790;18.268;2023-03-29T21:21:11;39.40;;;20.60;;
40170;SDS011;37650;52.790;18.268;2023-03-29T21:24:33;39.00;;;21.60;;
40170;SDS011;37650;52.790;18.268;2023-03-29T21:27:55;33.90;;;20.80;;
40170;SDS011;37650;52.790;18.268;2023-03-29T21:31:17;36.80;;;20.60;;
40170;SDS011;37650;52.790;18.268;2023-03-29T21:34:38;40.70;;;20.50;;
40170;SDS011;37650;52.790;18.268;2023-03-29T21:38:00;33.00;;;19.00;;
40170;SDS011;37650;52.790;18.268;2023-03-29T21:41:22;39.10;;;20.50;;
40170;SDS011;37650;52.790;18.268;2023-03-29T21:44:44;34.90;;;18.50;;
40170;SDS011;37650;52.790;18.268;2023-03-29T21:48:05;35.10;;;20.20;;
40170;SDS011;37650;52.790;18.268;2023-03-29T21:51:27;35.40;;;20.50;;
40170;SDS011;37650;52.790;18.268;2023-03-29T21:54:48;35.50;;;21.70;;
40170;SDS011;37650;52.790;18.268;2023-03-29T21:58:10;38.20;;;21.40;;
40170;SDS011;37650;52.790;18.268;2023-03-29T22:01:32;37.70;;;19.60;;
40170;SDS011;37650;52.790;18.268;2023-03-29T22:04:53;40.20;;;21.60;;